Terminal Aerodrome Forecast
Issued by NWS Corpus Christi, TX

Home | Current Version | Previous Version | Text Only | Print | Product List | Glossary On
Versions: 1 2 3 4 5 6 7 8 9 10 11 12 13
000
FTUS44 KCRP 231729
TAFVCT
TAF
KVCT 231729Z 2318/2418 VRB03KT P6SM BKN040
     FM232100 14012G18KT P6SM SCT050
     FM240200 14007KT P6SM SKC
     FM240800 VRB03KT P6SM SCT015
      TEMPO 2410/2412 5SM BR
     FM241600 VRB03KT P6SM BKN035=

USA.gov is the U.S. government's official web portal to all federal, state and local government web resources and services.